CDT,Max TemperatureF,Mean TemperatureF,Min TemperatureF,Max Dew PointF,MeanDew PointF,Min DewpointF,Max Humidity, Mean Humidity, Min Humidity, Max Sea Level PressureIn, Mean Sea Level PressureIn, Min Sea Level PressureIn, Max VisibilityMiles, Mean VisibilityMiles, Min VisibilityMiles, Max Wind SpeedMPH, Mean Wind SpeedMPH, Max Gust SpeedMPH,PrecipitationIn, CloudCover, Events, WindDirDegrees
2013-10-1,86,75,63,68,65,62,100,74,48,30.04,29.97,29.91,10,6,0,12,5,16,0.00,4,Fog,155
2013-10-2,85,75,65,68,66,65,100,78,55,30.09,30.00,29.94,10,9,5,14,6,17,0.00,4,,157
2013-10-3,85,75,64,68,66,64,100,79,58,30.01,29.94,29.88,10,10,6,18,7,24,T,2,,159
2013-10-4,88,79,69,68,65,59,90,66,42,29.98,29.92,29.88,10,10,10,17,8,24,0.00,4,,164
2013-10-5,74,62,50,70,58,45,100,89,77,30.04,29.98,29.90,10,7,0,21,7,30,2.21,7,Fog-Rain-Thunderstorm,301
2013-10-6,63,55,47,45,42,39,86,66,46,30.01,29.97,29.94,10,10,10,17,7,23,0.00,1,,283
2013-10-7,71,59,47,48,44,42,93,65,37,30.16,30.10,30.01,10,10,9,14,4,20,0.00,0,,297
2013-10-8,71,58,44,49,46,43,93,67,40,30.19,30.14,30.09,10,10,10,18,4,23,0.00,0,,134
2013-10-9,75,59,42,51,47,41,96,64,31,30.14,30.09,30.06,10,10,7,10,3,14,0.00,0,,123
2013-10-10,77,63,48,55,51,46,100,72,43,30.14,30.08,29.96,10,7,0,13,5,18,0.00,0,Fog,140
2013-10-11,79,66,52,60,56,52,100,77,54,30.04,29.97,29.89,10,6,0,20,9,24,0.00,3,Fog,146
2013-10-12,74,67,59,63,60,57,97,81,64,30.18,30.05,29.91,10,10,2,15,5,22,0.36,6,Rain-Thunderstorm,15
2013-10-13,74,64,53,57,49,42,90,65,40,30.34,30.27,30.19,10,10,9,13,4,17,0.00,4,,82
2013-10-14,69,61,52,60,53,46,100,80,60,30.27,30.15,30.02,10,9,5,13,6,15,0.14,2,Rain,138
2013-10-15,68,60,51,65,59,48,100,90,80,30.05,29.97,29.92,10,8,1,16,7,23,0.51,7,Rain,289
2013-10-16,63,54,44,50,44,40,96,73,49,30.11,30.05,29.99,10,10,6,10,4,15,0.23,5,Rain,306
2013-10-17,64,54,44,46,43,41,93,68,43,30.06,30.02,29.98,10,9,3,12,4,17,T,1,Rain,282
2013-10-18,65,53,41,51,45,41,96,74,52,30.09,30.03,29.97,10,10,6,12,3,15,0.08,4,Rain,325
2013-10-19,57,48,38,44,37,33,93,68,43,30.12,30.07,30.02,10,10,7,14,7,18,0.08,3,Rain,289
2013-10-20,69,54,39,42,39,36,92,62,32,30.04,29.98,29.92,10,10,10,16,6,22,0.00,1,,173
2013-10-21,58,50,41,48,45,40,96,79,61,30.10,30.04,29.96,10,10,9,10,3,14,0.15,6,Rain,291
2013-10-22,67,50,33,47,39,34,100,69,37,30.11,30.03,29.91,10,7,0,17,6,28,0.00,1,Fog,243
2013-10-23,61,49,36,40,36,30,93,63,32,30.20,30.11,30.04,10,10,8,9,4,15,0.00,1,,313
2013-10-24,55,45,35,39,33,27,100,69,38,30.43,30.28,30.10,10,9,3,14,5,21,0.00,1,,344
2013-10-25,55,43,30,31,27,23,85,59,32,30.53,30.42,30.25,10,10,10,14,6,18,0.00,0,,136
2013-10-26,69,55,41,54,47,30,86,72,58,30.22,30.14,30.09,10,10,10,16,5,26,0.00,4,,271
2013-10-27,66,57,47,52,45,39,100,78,55,30.11,30.06,30.00,10,9,2,12,3,14,0.00,4,,103
2013-10-28,68,54,40,54,47,40,100,76,52,30.21,30.12,30.05,10,3,0,14,5,20,0.00,3,Fog,152
2013-10-29,71,62,52,63,59,50,96,85,73,30.17,30.10,30.02,10,8,2,20,9,24,0.30,7,Rain-Thunderstorm,158
2013-10-30,68,65,61,64,62,58,100,91,81,30.08,29.99,29.83,10,9,2,22,9,30,0.40,6,Rain,165
2013-10-31,75,63,50,64,57,42,100,67,33,29.81,29.65,29.45,10,9,3,28,10,37,0.08,6,Rain,200